sensor_id;sensor_type;location;lat;lon;timestamp;P1;durP1;ratioP1;P2;durP2;ratioP2
60030;SDS011;45901;47.600;9.890;2023-06-24T00:01:45;5.20;;;3.80;;
60030;SDS011;45901;47.600;9.890;2023-06-24T00:04:14;5.13;;;4.10;;
60030;SDS011;45901;47.600;9.890;2023-06-24T00:06:44;6.77;;;3.80;;
60030;SDS011;45901;47.600;9.890;2023-06-24T00:09:11;6.07;;;4.20;;
60030;SDS011;45901;47.600;9.890;2023-06-24T00:11:38;5.80;;;3.80;;
60030;SDS011;45901;47.600;9.890;2023-06-24T00:14:05;5.10;;;3.90;;
60030;SDS011;45901;47.600;9.890;2023-06-24T00:16:33;7.33;;;4.27;;
60030;SDS011;45901;47.600;9.890;2023-06-24T00:19:01;5.00;;;3.80;;
60030;SDS011;45901;47.600;9.890;2023-06-24T00:21:30;6.30;;;3.90;;
60030;SDS011;45901;47.600;9.890;2023-06-24T00:23:57;6.20;;;4.00;;
60030;SDS011;45901;47.600;9.890;2023-06-24T00:26:29;7.37;;;4.40;;
60030;SDS011;45901;47.600;9.890;2023-06-24T00:28:57;5.40;;;4.07;;
60030;SDS011;45901;47.600;9.890;2023-06-24T00:31:25;6.50;;;4.17;;
60030;SDS011;45901;47.600;9.890;2023-06-24T00:33:52;8.97;;;4.43;;
60030;SDS011;45901;47.600;9.890;2023-06-24T00:36:19;5.70;;;4.53;;
60030;SDS011;45901;47.600;9.890;2023-06-24T00:38:48;5.53;;;3.93;;
60030;SDS011;45901;47.600;9.890;2023-06-24T00:41:16;6.47;;;3.93;;
60030;SDS011;45901;47.600;9.890;2023-06-24T00:43:44;6.17;;;4.77;;
60030;SDS011;45901;47.600;9.890;2023-06-24T00:46:12;6.80;;;4.50;;
60030;SDS011;45901;47.600;9.890;2023-06-24T00:48:40;7.43;;;4.50;;
60030;SDS011;45901;47.600;9.890;2023-06-24T00:51:08;4.47;;;3.80;;
60030;SDS011;45901;47.600;9.890;2023-06-24T00:53:35;6.23;;;4.47;;
60030;SDS011;45901;47.600;9.890;2023-06-24T00:56:03;6.33;;;4.33;;
60030;SDS011;45901;47.600;9.890;2023-06-24T00:58:31;6.90;;;4.83;;
60030;SDS011;45901;47.600;9.890;2023-06-24T01:01:02;5.17;;;3.83;;
60030;SDS011;45901;47.600;9.890;2023-06-24T01:03:33;7.73;;;4.20;;
60030;SDS011;45901;47.600;9.890;2023-06-24T01:06:01;7.53;;;4.30;;
60030;SDS011;45901;47.600;9.890;2023-06-24T01:08:29;5.13;;;3.80;;
60030;SDS011;45901;47.600;9.890;2023-06-24T01:10:57;7.40;;;4.50;;
60030;SDS011;45901;47.600;9.890;2023-06-24T01:13:25;6.77;;;4.27;;
60030;SDS011;45901;47.600;9.890;2023-06-24T01:15:52;6.63;;;3.93;;
60030;SDS011;45901;47.600;9.890;2023-06-24T01:18:21;8.17;;;4.20;;
60030;SDS011;45901;47.600;9.890;2023-06-24T01:20:56;5.67;;;4.50;;
60030;SDS011;45901;47.600;9.890;2023-06-24T01:23:42;6.87;;;4.40;;
60030;SDS011;45901;47.600;9.890;2023-06-24T01:26:54;6.37;;;4.23;;
60030;SDS011;45901;47.600;9.890;2023-06-24T01:30:05;6.10;;;4.50;;
60030;SDS011;45901;47.600;9.890;2023-06-24T01:33:09;8.63;;;4.10;;
60030;SDS011;45901;47.600;9.890;2023-06-24T01:35:41;7.07;;;3.73;;
60030;SDS011;45901;47.600;9.890;2023-06-24T01:38:12;5.80;;;3.90;;
60030;SDS011;45901;47.600;9.890;2023-06-24T01:40:48;5.67;;;4.07;;
60030;SDS011;45901;47.600;9.890;2023-06-24T01:43:17;5.30;;;4.50;;
60030;SDS011;45901;47.600;9.890;2023-06-24T01:45:48;6.07;;;4.60;;
60030;SDS011;45901;47.600;9.890;2023-06-24T01:48:21;7.13;;;4.67;;
60030;SDS011;45901;47.600;9.890;2023-06-24T01:50:54;7.57;;;4.33;;
60030;SDS011;45901;47.600;9.890;2023-06-24T01:53:26;5.63;;;4.20;;
60030;SDS011;45901;47.600;9.890;2023-06-24T01:55:55;7.63;;;4.73;;
60030;SDS011;45901;47.600;9.890;2023-06-24T01:58:26;7.17;;;4.60;;
60030;SDS011;45901;47.600;9.890;2023-06-24T02:00:56;8.10;;;4.57;;
60030;SDS011;45901;47.600;9.890;2023-06-24T02:03:26;7.90;;;4.63;;
60030;SDS011;45901;47.600;9.890;2023-06-24T02:05:54;9.00;;;4.10;;
60030;SDS011;45901;47.600;9.890;2023-06-24T02:08:23;5.30;;;4.03;;
60030;SDS011;45901;47.600;9.890;2023-06-24T02:10:52;5.60;;;4.37;;
60030;SDS011;45901;47.600;9.890;2023-06-24T02:13:20;5.97;;;4.50;;
60030;SDS011;45901;47.600;9.890;2023-06-24T02:15:48;5.83;;;4.33;;
60030;SDS011;45901;47.600;9.890;2023-06-24T02:18:16;7.73;;;4.90;;
60030;SDS011;45901;47.600;9.890;2023-06-24T02:20:46;7.80;;;4.33;;
60030;SDS011;45901;47.600;9.890;2023-06-24T02:23:15;6.30;;;4.53;;
60030;SDS011;45901;47.600;9.890;2023-06-24T02:25:43;6.60;;;5.03;;
60030;SDS011;45901;47.600;9.890;2023-06-24T02:28:11;6.87;;;4.87;;
60030;SDS011;45901;47.600;9.890;2023-06-24T02:30:38;7.33;;;5.13;;
60030;SDS011;45901;47.600;9.890;2023-06-24T02:33:08;7.30;;;4.87;;
60030;SDS011;45901;47.600;9.890;2023-06-24T02:35:36;7.43;;;4.63;;
60030;SDS011;45901;47.600;9.890;2023-06-24T02:38:08;5.60;;;4.53;;
60030;SDS011;45901;47.600;9.890;2023-06-24T02:40:35;6.27;;;4.70;;
60030;SDS011;45901;47.600;9.890;2023-06-24T02:43:02;6.87;;;4.60;;
60030;SDS011;45901;47.600;9.890;2023-06-24T02:45:29;8.10;;;4.40;;
60030;SDS011;45901;47.600;9.890;2023-06-24T02:47:58;7.40;;;4.57;;
60030;SDS011;45901;47.600;9.890;2023-06-24T02:50:26;7.33;;;4.67;;
60030;SDS011;45901;47.600;9.890;2023-06-24T02:52:54;7.07;;;4.57;;
60030;SDS011;45901;47.600;9.890;2023-06-24T02:55:23;7.13;;;4.37;;
60030;SDS011;45901;47.600;9.890;2023-06-24T02:57:51;5.93;;;4.50;;
60030;SDS011;45901;47.600;9.890;2023-06-24T03:00:19;6.30;;;4.47;;
60030;SDS011;45901;47.600;9.890;2023-06-24T03:02:47;5.93;;;4.13;;
60030;SDS011;45901;47.600;9.890;2023-06-24T03:05:16;6.20;;;4.50;;
60030;SDS011;45901;47.600;9.890;2023-06-24T03:07:44;5.97;;;4.10;;
60030;SDS011;45901;47.600;9.890;2023-06-24T03:10:12;5.90;;;4.33;;
60030;SDS011;45901;47.600;9.890;2023-06-24T03:12:41;6.17;;;4.43;;
60030;SDS011;45901;47.600;9.890;2023-06-24T03:15:09;7.00;;;4.53;;
60030;SDS011;45901;47.600;9.890;2023-06-24T03:17:36;7.00;;;4.33;;
60030;SDS011;45901;47.600;9.890;2023-06-24T03:20:04;6.43;;;4.17;;
60030;SDS011;45901;47.600;9.890;2023-06-24T03:22:33;6.13;;;4.30;;
60030;SDS011;45901;47.600;9.890;2023-06-24T03:25:01;6.73;;;4.43;;
60030;SDS011;45901;47.600;9.890;2023-06-24T03:27:29;7.37;;;4.70;;
60030;SDS011;45901;47.600;9.890;2023-06-24T03:29:57;7.33;;;4.43;;
60030;SDS011;45901;47.600;9.890;2023-06-24T03:32:25;5.60;;;3.93;;
60030;SDS011;45901;47.600;9.890;2023-06-24T03:34:52;6.37;;;3.97;;
60030;SDS011;45901;47.600;9.890;2023-06-24T03:37:19;7.13;;;4.20;;
60030;SDS011;45901;47.600;9.890;2023-06-24T03:39:46;7.17;;;4.40;;
60030;SDS011;45901;47.600;9.890;2023-06-24T03:42:14;6.13;;;4.50;;
60030;SDS011;45901;47.600;9.890;2023-06-24T03:44:41;5.87;;;4.93;;
60030;SDS011;45901;47.600;9.890;2023-06-24T03:47:09;5.87;;;4.53;;
60030;SDS011;45901;47.600;9.890;2023-06-24T03:49:37;5.57;;;4.30;;
60030;SDS011;45901;47.600;9.890;2023-06-24T03:52:05;6.50;;;4.50;;
60030;SDS011;45901;47.600;9.890;2023-06-24T03:54:34;7.83;;;4.13;;
60030;SDS011;45901;47.600;9.890;2023-06-24T03:57:01;8.13;;;4.40;;
60030;SDS011;45901;47.600;9.890;2023-06-24T03:59:29;9.57;;;4.50;;
60030;SDS011;45901;47.600;9.890;2023-06-24T04:01:56;4.83;;;4.23;;
60030;SDS011;45901;47.600;9.890;2023-06-24T04:04:25;8.27;;;4.67;;
60030;SDS011;45901;47.600;9.890;2023-06-24T04:06:52;6.73;;;4.57;;
60030;SDS011;45901;47.600;9.890;2023-06-24T04:09:19;7.73;;;4.83;;
60030;SDS011;45901;47.600;9.890;2023-06-24T04:11:47;7.63;;;4.70;;
60030;SDS011;45901;47.600;9.890;2023-06-24T04:14:14;6.77;;;4.67;;
60030;SDS011;45901;47.600;9.890;2023-06-24T04:16:41;7.37;;;4.93;;
60030;SDS011;45901;47.600;9.890;2023-06-24T04:19:09;5.43;;;4.07;;
60030;SDS011;45901;47.600;9.890;2023-06-24T04:21:37;6.10;;;4.67;;
60030;SDS011;45901;47.600;9.890;2023-06-24T04:24:05;7.23;;;5.20;;
60030;SDS011;45901;47.600;9.890;2023-06-24T04:26:32;6.70;;;4.17;;
60030;SDS011;45901;47.600;9.890;2023-06-24T04:28:59;7.27;;;4.23;;
60030;SDS011;45901;47.600;9.890;2023-06-24T04:31:26;6.87;;;4.20;;
60030;SDS011;45901;47.600;9.890;2023-06-24T04:33:54;5.53;;;4.10;;
60030;SDS011;45901;47.600;9.890;2023-06-24T04:36:21;5.07;;;3.70;;
60030;SDS011;45901;47.600;9.890;2023-06-24T04:38:49;7.90;;;3.50;;
60030;SDS011;45901;47.600;9.890;2023-06-24T04:41:16;6.17;;;4.00;;
60030;SDS011;45901;47.600;9.890;2023-06-24T04:43:44;5.53;;;3.80;;
60030;SDS011;45901;47.600;9.890;2023-06-24T04:46:11;6.60;;;3.80;;
60030;SDS011;45901;47.600;9.890;2023-06-24T04:48:38;4.97;;;3.20;;
60030;SDS011;45901;47.600;9.890;2023-06-24T04:51:06;5.97;;;3.70;;
60030;SDS011;45901;47.600;9.890;2023-06-24T04:53:33;5.20;;;3.20;;
60030;SDS011;45901;47.600;9.890;2023-06-24T04:56:02;4.67;;;3.13;;
60030;SDS011;45901;47.600;9.890;2023-06-24T04:58:29;5.33;;;3.33;;
60030;SDS011;45901;47.600;9.890;2023-06-24T05:00:56;4.87;;;3.23;;
60030;SDS011;45901;47.600;9.890;2023-06-24T05:03:24;4.43;;;2.97;;
60030;SDS011;45901;47.600;9.890;2023-06-24T05:05:51;3.50;;;2.90;;
60030;SDS011;45901;47.600;9.890;2023-06-24T05:08:18;7.07;;;3.57;;
60030;SDS011;45901;47.600;9.890;2023-06-24T05:10:45;4.07;;;2.80;;
60030;SDS011;45901;47.600;9.890;2023-06-24T05:13:14;6.30;;;3.50;;
60030;SDS011;45901;47.600;9.890;2023-06-24T05:15:41;4.00;;;2.97;;
60030;SDS011;45901;47.600;9.890;2023-06-24T05:18:08;4.60;;;3.00;;
60030;SDS011;45901;47.600;9.890;2023-06-24T05:20:36;4.67;;;3.23;;
60030;SDS011;45901;47.600;9.890;2023-06-24T05:23:03;4.90;;;3.13;;
60030;SDS011;45901;47.600;9.890;2023-06-24T05:25:30;5.10;;;2.80;;
60030;SDS011;45901;47.600;9.890;2023-06-24T05:27:57;6.23;;;2.80;;
60030;SDS011;45901;47.600;9.890;2023-06-24T05:30:26;4.80;;;3.03;;
60030;SDS011;45901;47.600;9.890;2023-06-24T05:32:53;4.27;;;3.20;;
60030;SDS011;45901;47.600;9.890;2023-06-24T05:35:20;6.47;;;3.37;;
60030;SDS011;45901;47.600;9.890;2023-06-24T05:37:50;4.57;;;3.07;;
60030;SDS011;45901;47.600;9.890;2023-06-24T05:40:18;5.93;;;3.40;;
60030;SDS011;45901;47.600;9.890;2023-06-24T05:42:45;4.63;;;3.67;;
60030;SDS011;45901;47.600;9.890;2023-06-24T05:45:12;6.23;;;3.70;;
60030;SDS011;45901;47.600;9.890;2023-06-24T05:47:41;5.30;;;3.53;;
60030;SDS011;45901;47.600;9.890;2023-06-24T05:50:08;6.27;;;3.27;;
60030;SDS011;45901;47.600;9.890;2023-06-24T05:52:36;4.70;;;3.20;;
60030;SDS011;45901;47.600;9.890;2023-06-24T05:55:03;3.90;;;2.90;;
60030;SDS011;45901;47.600;9.890;2023-06-24T05:57:31;5.50;;;2.90;;
60030;SDS011;45901;47.600;9.890;2023-06-24T05:59:58;3.40;;;2.47;;
60030;SDS011;45901;47.600;9.890;2023-06-24T06:02:25;3.30;;;2.50;;
60030;SDS011;45901;47.600;9.890;2023-06-24T06:04:54;3.70;;;2.90;;
60030;SDS011;45901;47.600;9.890;2023-06-24T06:07:21;3.10;;;2.07;;
60030;SDS011;45901;47.600;9.890;2023-06-24T06:09:48;4.07;;;2.93;;
60030;SDS011;45901;47.600;9.890;2023-06-24T06:12:15;4.87;;;2.80;;
60030;SDS011;45901;47.600;9.890;2023-06-24T06:14:42;5.77;;;2.47;;
60030;SDS011;45901;47.600;9.890;2023-06-24T06:17:11;3.57;;;2.67;;
60030;SDS011;45901;47.600;9.890;2023-06-24T06:19:40;5.00;;;2.83;;
60030;SDS011;45901;47.600;9.890;2023-06-24T06:22:08;3.10;;;2.43;;
60030;SDS011;45901;47.600;9.890;2023-06-24T06:24:36;6.33;;;2.67;;
60030;SDS011;45901;47.600;9.890;2023-06-24T06:27:03;3.60;;;2.70;;
60030;SDS011;45901;47.600;9.890;2023-06-24T06:29:35;5.07;;;2.70;;
60030;SDS011;45901;47.600;9.890;2023-06-24T06:32:02;3.43;;;2.30;;
60030;SDS011;45901;47.600;9.890;2023-06-24T06:34:30;3.23;;;2.23;;
60030;SDS011;45901;47.600;9.890;2023-06-24T06:36:57;3.03;;;2.07;;
60030;SDS011;45901;47.600;9.890;2023-06-24T06:39:26;4.33;;;2.70;;
60030;SDS011;45901;47.600;9.890;2023-06-24T06:41:53;3.37;;;1.90;;
60030;SDS011;45901;47.600;9.890;2023-06-24T06:44:20;3.83;;;2.70;;
60030;SDS011;45901;47.600;9.890;2023-06-24T06:46:47;3.67;;;2.00;;
60030;SDS011;45901;47.600;9.890;2023-06-24T06:49:15;2.67;;;2.10;;
60030;SDS011;45901;47.600;9.890;2023-06-24T06:51:42;4.43;;;2.47;;
60030;SDS011;45901;47.600;9.890;2023-06-24T06:54:09;3.60;;;2.43;;
60030;SDS011;45901;47.600;9.890;2023-06-24T06:56:37;3.33;;;2.20;;
60030;SDS011;45901;47.600;9.890;2023-06-24T06:59:05;3.50;;;2.10;;
60030;SDS011;45901;47.600;9.890;2023-06-24T07:01:32;2.97;;;2.00;;
60030;SDS011;45901;47.600;9.890;2023-06-24T07:03:59;3.93;;;2.43;;
60030;SDS011;45901;47.600;9.890;2023-06-24T07:06:26;3.90;;;2.43;;
60030;SDS011;45901;47.600;9.890;2023-06-24T07:08:53;2.97;;;2.13;;
60030;SDS011;45901;47.600;9.890;2023-06-24T07:11:21;3.67;;;2.30;;
60030;SDS011;45901;47.600;9.890;2023-06-24T07:13:50;3.07;;;2.00;;
60030;SDS011;45901;47.600;9.890;2023-06-24T07:16:18;2.90;;;2.10;;
60030;SDS011;45901;47.600;9.890;2023-06-24T07:18:45;4.53;;;2.13;;
60030;SDS011;45901;47.600;9.890;2023-06-24T07:21:12;3.70;;;2.57;;
60030;SDS011;45901;47.600;9.890;2023-06-24T07:23:39;2.87;;;2.23;;
60030;SDS011;45901;47.600;9.890;2023-06-24T07:26:07;3.10;;;2.30;;
60030;SDS011;45901;47.600;9.890;2023-06-24T07:28:34;2.80;;;2.30;;
60030;SDS011;45901;47.600;9.890;2023-06-24T07:31:02;4.20;;;2.40;;
60030;SDS011;45901;47.600;9.890;2023-06-24T07:33:29;3.43;;;2.37;;
60030;SDS011;45901;47.600;9.890;2023-06-24T07:35:57;2.70;;;2.30;;
60030;SDS011;45901;47.600;9.890;2023-06-24T07:38:24;4.13;;;2.63;;
60030;SDS011;45901;47.600;9.890;2023-06-24T07:40:51;3.50;;;2.80;;
60030;SDS011;45901;47.600;9.890;2023-06-24T07:43:19;3.20;;;2.50;;
60030;SDS011;45901;47.600;9.890;2023-06-24T07:45:46;4.37;;;2.80;;
60030;SDS011;45901;47.600;9.890;2023-06-24T07:48:14;4.23;;;2.77;;
60030;SDS011;45901;47.600;9.890;2023-06-24T07:50:41;3.30;;;2.60;;
60030;SDS011;45901;47.600;9.890;2023-06-24T07:53:09;3.83;;;2.73;;
60030;SDS011;45901;47.600;9.890;2023-06-24T07:55:36;4.27;;;2.73;;
60030;SDS011;45901;47.600;9.890;2023-06-24T07:58:03;7.77;;;2.63;;
60030;SDS011;45901;47.600;9.890;2023-06-24T08:00:31;5.27;;;2.73;;
60030;SDS011;45901;47.600;9.890;2023-06-24T08:02:58;3.87;;;2.70;;
60030;SDS011;45901;47.600;9.890;2023-06-24T08:05:26;3.50;;;2.70;;
60030;SDS011;45901;47.600;9.890;2023-06-24T08:07:54;6.50;;;3.00;;
60030;SDS011;45901;47.600;9.890;2023-06-24T08:10:21;5.40;;;3.10;;
60030;SDS011;45901;47.600;9.890;2023-06-24T08:12:48;5.67;;;2.87;;
60030;SDS011;45901;47.600;9.890;2023-06-24T08:15:15;5.37;;;2.73;;
60030;SDS011;45901;47.600;9.890;2023-06-24T08:17:43;5.07;;;2.60;;
60030;SDS011;45901;47.600;9.890;2023-06-24T08:20:10;3.40;;;2.47;;
60030;SDS011;45901;47.600;9.890;2023-06-24T08:22:39;3.93;;;2.63;;
60030;SDS011;45901;47.600;9.890;2023-06-24T08:25:07;3.07;;;2.30;;
60030;SDS011;45901;47.600;9.890;2023-06-24T08:27:34;4.37;;;2.67;;
60030;SDS011;45901;47.600;9.890;2023-06-24T08:30:03;4.53;;;2.77;;
60030;SDS011;45901;47.600;9.890;2023-06-24T08:32:31;4.27;;;2.57;;
60030;SDS011;45901;47.600;9.890;2023-06-24T08:34:58;5.27;;;2.60;;
60030;SDS011;45901;47.600;9.890;2023-06-24T08:37:25;4.07;;;2.73;;
60030;SDS011;45901;47.600;9.890;2023-06-24T08:39:54;5.13;;;2.53;;
60030;SDS011;45901;47.600;9.890;2023-06-24T08:42:22;5.33;;;2.43;;
60030;SDS011;45901;47.600;9.890;2023-06-24T08:44:50;3.60;;;2.53;;
60030;SDS011;45901;47.600;9.890;2023-06-24T08:47:17;4.70;;;2.80;;
60030;SDS011;45901;47.600;9.890;2023-06-24T08:49:46;5.67;;;2.57;;
60030;SDS011;45901;47.600;9.890;2023-06-24T08:52:20;5.17;;;2.40;;
60030;SDS011;45901;47.600;9.890;2023-06-24T08:54:51;4.63;;;2.60;;
60030;SDS011;45901;47.600;9.890;2023-06-24T08:57:21;3.03;;;2.10;;
60030;SDS011;45901;47.600;9.890;2023-06-24T08:59:50;3.40;;;2.47;;
60030;SDS011;45901;47.600;9.890;2023-06-24T09:02:18;5.53;;;2.60;;
60030;SDS011;45901;47.600;9.890;2023-06-24T09:04:45;6.87;;;2.53;;
60030;SDS011;45901;47.600;9.890;2023-06-24T09:07:13;4.67;;;2.33;;
60030;SDS011;45901;47.600;9.890;2023-06-24T09:09:49;4.03;;;2.47;;
60030;SDS011;45901;47.600;9.890;2023-06-24T09:12:18;3.87;;;2.50;;
60030;SDS011;45901;47.600;9.890;2023-06-24T09:14:47;3.63;;;2.57;;
60030;SDS011;45901;47.600;9.890;2023-06-24T09:17:15;3.60;;;2.53;;
60030;SDS011;45901;47.600;9.890;2023-06-24T09:19:43;3.17;;;2.30;;
60030;SDS011;45901;47.600;9.890;2023-06-24T09:22:10;2.73;;;2.30;;
60030;SDS011;45901;47.600;9.890;2023-06-24T09:24:42;4.43;;;2.70;;
60030;SDS011;45901;47.600;9.890;2023-06-24T09:27:13;3.93;;;2.63;;
60030;SDS011;45901;47.600;9.890;2023-06-24T09:29:43;5.13;;;2.73;;
60030;SDS011;45901;47.600;9.890;2023-06-24T09:32:10;4.27;;;2.50;;
60030;SDS011;45901;47.600;9.890;2023-06-24T09:34:37;2.97;;;2.30;;
60030;SDS011;45901;47.600;9.890;2023-06-24T09:37:05;3.37;;;2.43;;
60030;SDS011;45901;47.600;9.890;2023-06-24T09:39:35;3.40;;;2.60;;
60030;SDS011;45901;47.600;9.890;2023-06-24T09:42:05;4.17;;;2.47;;
60030;SDS011;45901;47.600;9.890;2023-06-24T09:44:33;4.47;;;2.57;;
60030;SDS011;45901;47.600;9.890;2023-06-24T09:47:02;6.03;;;2.70;;
60030;SDS011;45901;47.600;9.890;2023-06-24T09:49:30;5.17;;;2.67;;
60030;SDS011;45901;47.600;9.890;2023-06-24T09:51:57;3.93;;;2.57;;
60030;SDS011;45901;47.600;9.890;2023-06-24T09:54:26;2.97;;;2.47;;
60030;SDS011;45901;47.600;9.890;2023-06-24T09:56:55;5.20;;;2.57;;
60030;SDS011;45901;47.600;9.890;2023-06-24T09:59:26;3.53;;;2.73;;
60030;SDS011;45901;47.600;9.890;2023-06-24T10:01:54;4.20;;;2.70;;
60030;SDS011;45901;47.600;9.890;2023-06-24T10:04:24;4.13;;;3.03;;
60030;SDS011;45901;47.600;9.890;2023-06-24T10:06:54;3.97;;;3.00;;
60030;SDS011;45901;47.600;9.890;2023-06-24T10:09:22;4.90;;;2.77;;
60030;SDS011;45901;47.600;9.890;2023-06-24T10:11:49;7.57;;;2.93;;
60030;SDS011;45901;47.600;9.890;2023-06-24T10:14:16;3.97;;;2.63;;
60030;SDS011;45901;47.600;9.890;2023-06-24T10:16:44;3.73;;;2.70;;
60030;SDS011;45901;47.600;9.890;2023-06-24T10:19:13;4.37;;;2.83;;
60030;SDS011;45901;47.600;9.890;2023-06-24T10:21:50;6.33;;;2.63;;
60030;SDS011;45901;47.600;9.890;2023-06-24T10:24:28;4.60;;;2.20;;
60030;SDS011;45901;47.600;9.890;2023-06-24T10:27:00;3.90;;;2.73;;
60030;SDS011;45901;47.600;9.890;2023-06-24T10:29:33;4.90;;;2.40;;
60030;SDS011;45901;47.600;9.890;2023-06-24T10:32:02;3.20;;;2.43;;
60030;SDS011;45901;47.600;9.890;2023-06-24T10:34:33;4.87;;;2.60;;
60030;SDS011;45901;47.600;9.890;2023-06-24T10:37:09;4.07;;;2.77;;
60030;SDS011;45901;47.600;9.890;2023-06-24T10:39:48;4.37;;;2.63;;
60030;SDS011;45901;47.600;9.890;2023-06-24T10:42:30;4.20;;;2.70;;
60030;SDS011;45901;47.600;9.890;2023-06-24T10:45:00;4.77;;;2.50;;
60030;SDS011;45901;47.600;9.890;2023-06-24T10:47:39;4.20;;;2.70;;
60030;SDS011;45901;47.600;9.890;2023-06-24T10:50:11;3.17;;;2.57;;
60030;SDS011;45901;47.600;9.890;2023-06-24T10:52:42;8.70;;;2.70;;
60030;SDS011;45901;47.600;9.890;2023-06-24T10:55:13;3.00;;;2.70;;
60030;SDS011;45901;47.600;9.890;2023-06-24T10:57:42;10.63;;;2.97;;
60030;SDS011;45901;47.600;9.890;2023-06-24T11:00:10;3.40;;;2.47;;
60030;SDS011;45901;47.600;9.890;2023-06-24T11:02:39;3.30;;;2.40;;
60030;SDS011;45901;47.600;9.890;2023-06-24T11:05:06;4.03;;;2.83;;
60030;SDS011;45901;47.600;9.890;2023-06-24T11:07:35;3.53;;;2.63;;
60030;SDS011;45901;47.600;9.890;2023-06-24T11:10:06;3.87;;;2.67;;
60030;SDS011;45901;47.600;9.890;2023-06-24T11:12:36;3.25;;;2.72;;
60030;SDS011;45901;47.600;9.890;2023-06-24T11:15:06;7.13;;;2.60;;
60030;SDS011;45901;47.600;9.890;2023-06-24T11:17:35;7.10;;;2.90;;
60030;SDS011;45901;47.600;9.890;2023-06-24T11:20:06;2.97;;;2.27;;
60030;SDS011;45901;47.600;9.890;2023-06-24T11:22:35;3.97;;;2.30;;
60030;SDS011;45901;47.600;9.890;2023-06-24T11:25:02;4.13;;;2.57;;
60030;SDS011;45901;47.600;9.890;2023-06-24T11:27:32;4.22;;;2.78;;
60030;SDS011;45901;47.600;9.890;2023-06-24T11:29:59;4.03;;;2.90;;
60030;SDS011;45901;47.600;9.890;2023-06-24T11:32:34;4.18;;;2.55;;
60030;SDS011;45901;47.600;9.890;2023-06-24T11:35:03;3.60;;;2.60;;
60030;SDS011;45901;47.600;9.890;2023-06-24T11:37:32;5.20;;;2.95;;
60030;SDS011;45901;47.600;9.890;2023-06-24T11:40:03;3.28;;;2.72;;
60030;SDS011;45901;47.600;9.890;2023-06-24T11:42:35;3.30;;;2.60;;
60030;SDS011;45901;47.600;9.890;2023-06-24T11:45:06;6.95;;;2.40;;
60030;SDS011;45901;47.600;9.890;2023-06-24T11:47:36;4.47;;;2.70;;
60030;SDS011;45901;47.600;9.890;2023-06-24T11:50:05;3.22;;;2.40;;
60030;SDS011;45901;47.600;9.890;2023-06-24T11:52:40;6.07;;;2.92;;
60030;SDS011;45901;47.600;9.890;2023-06-24T11:55:15;4.68;;;2.53;;
60030;SDS011;45901;47.600;9.890;2023-06-24T11:57:50;3.55;;;2.30;;
60030;SDS011;45901;47.600;9.890;2023-06-24T12:00:21;4.82;;;2.92;;
60030;SDS011;45901;47.600;9.890;2023-06-24T12:02:49;4.85;;;2.92;;
60030;SDS011;45901;47.600;9.890;2023-06-24T12:05:25;3.63;;;2.65;;
60030;SDS011;45901;47.600;9.890;2023-06-24T12:07:55;3.53;;;2.55;;
60030;SDS011;45901;47.600;9.890;2023-06-24T12:10:25;3.70;;;2.58;;
60030;SDS011;45901;47.600;9.890;2023-06-24T12:12:53;3.75;;;2.40;;
60030;SDS011;45901;47.600;9.890;2023-06-24T12:15:22;3.97;;;3.00;;
60030;SDS011;45901;47.600;9.890;2023-06-24T12:17:49;6.00;;;2.70;;
60030;SDS011;45901;47.600;9.890;2023-06-24T12:20:16;3.00;;;2.30;;
60030;SDS011;45901;47.600;9.890;2023-06-24T12:22:44;3.17;;;2.60;;
60030;SDS011;45901;47.600;9.890;2023-06-24T12:25:13;4.78;;;3.00;;
60030;SDS011;45901;47.600;9.890;2023-06-24T12:27:43;4.07;;;2.55;;
60030;SDS011;45901;47.600;9.890;2023-06-24T12:30:11;3.60;;;2.63;;
60030;SDS011;45901;47.600;9.890;2023-06-24T12:32:39;3.28;;;2.47;;
60030;SDS011;45901;47.600;9.890;2023-06-24T12:35:06;3.38;;;2.63;;
60030;SDS011;45901;47.600;9.890;2023-06-24T12:37:35;4.22;;;2.65;;
60030;SDS011;45901;47.600;9.890;2023-06-24T12:40:03;4.45;;;2.80;;
60030;SDS011;45901;47.600;9.890;2023-06-24T12:42:32;4.38;;;2.63;;
60030;SDS011;45901;47.600;9.890;2023-06-24T12:45:00;5.25;;;2.83;;
60030;SDS011;45901;47.600;9.890;2023-06-24T12:47:27;4.28;;;2.72;;
60030;SDS011;45901;47.600;9.890;2023-06-24T12:49:54;3.28;;;2.35;;
60030;SDS011;45901;47.600;9.890;2023-06-24T12:52:21;4.85;;;3.03;;
60030;SDS011;45901;47.600;9.890;2023-06-24T12:54:49;3.03;;;2.20;;
60030;SDS011;45901;47.600;9.890;2023-06-24T12:57:16;4.32;;;2.65;;
60030;SDS011;45901;47.600;9.890;2023-06-24T12:59:43;4.18;;;2.70;;
60030;SDS011;45901;47.600;9.890;2023-06-24T13:02:11;4.53;;;2.72;;
60030;SDS011;45901;47.600;9.890;2023-06-24T13:04:39;3.85;;;2.63;;
60030;SDS011;45901;47.600;9.890;2023-06-24T13:07:06;3.25;;;2.20;;
60030;SDS011;45901;47.600;9.890;2023-06-24T13:09:34;3.90;;;2.88;;
60030;SDS011;45901;47.600;9.890;2023-06-24T13:12:02;4.28;;;2.97;;
60030;SDS011;45901;47.600;9.890;2023-06-24T13:14:30;4.90;;;2.90;;
60030;SDS011;45901;47.600;9.890;2023-06-24T13:16:57;4.35;;;3.05;;
60030;SDS011;45901;47.600;9.890;2023-06-24T13:19:25;3.70;;;2.58;;
60030;SDS011;45901;47.600;9.890;2023-06-24T13:21:52;3.40;;;2.60;;
60030;SDS011;45901;47.600;9.890;2023-06-24T13:24:19;3.58;;;2.80;;
60030;SDS011;45901;47.600;9.890;2023-06-24T13:26:47;2.53;;;2.33;;
60030;SDS011;45901;47.600;9.890;2023-06-24T13:29:14;4.90;;;2.95;;
60030;SDS011;45901;47.600;9.890;2023-06-24T13:31:42;4.57;;;2.85;;
60030;SDS011;45901;47.600;9.890;2023-06-24T13:34:09;3.88;;;3.00;;
60030;SDS011;45901;47.600;9.890;2023-06-24T13:36:38;3.70;;;2.88;;
60030;SDS011;45901;47.600;9.890;2023-06-24T13:39:06;3.97;;;2.83;;
60030;SDS011;45901;47.600;9.890;2023-06-24T13:41:37;4.97;;;2.80;;
60030;SDS011;45901;47.600;9.890;2023-06-24T13:44:04;3.78;;;2.85;;
60030;SDS011;45901;47.600;9.890;2023-06-24T13:46:32;3.63;;;2.85;;
60030;SDS011;45901;47.600;9.890;2023-06-24T13:48:59;4.00;;;2.65;;
60030;SDS011;45901;47.600;9.890;2023-06-24T13:51:26;6.55;;;3.22;;
60030;SDS011;45901;47.600;9.890;2023-06-24T13:53:55;3.65;;;2.63;;
60030;SDS011;45901;47.600;9.890;2023-06-24T13:56:23;3.55;;;2.85;;
60030;SDS011;45901;47.600;9.890;2023-06-24T13:58:51;4.47;;;2.83;;
60030;SDS011;45901;47.600;9.890;2023-06-24T14:01:19;3.85;;;3.17;;
60030;SDS011;45901;47.600;9.890;2023-06-24T14:03:46;4.72;;;2.58;;
60030;SDS011;45901;47.600;9.890;2023-06-24T14:06:14;4.95;;;3.10;;
60030;SDS011;45901;47.600;9.890;2023-06-24T14:08:43;3.00;;;2.70;;
60030;SDS011;45901;47.600;9.890;2023-06-24T14:11:12;4.43;;;2.60;;
60030;SDS011;45901;47.600;9.890;2023-06-24T14:13:40;4.75;;;3.17;;
60030;SDS011;45901;47.600;9.890;2023-06-24T14:16:08;3.75;;;2.78;;
60030;SDS011;45901;47.600;9.890;2023-06-24T14:18:36;4.25;;;2.70;;
60030;SDS011;45901;47.600;9.890;2023-06-24T14:21:04;5.13;;;3.00;;
60030;SDS011;45901;47.600;9.890;2023-06-24T14:23:33;3.35;;;2.50;;
60030;SDS011;45901;47.600;9.890;2023-06-24T14:26:01;4.25;;;3.05;;
60030;SDS011;45901;47.600;9.890;2023-06-24T14:28:30;3.35;;;2.80;;
60030;SDS011;45901;47.600;9.890;2023-06-24T14:30:57;6.03;;;2.47;;
60030;SDS011;45901;47.600;9.890;2023-06-24T14:33:24;4.13;;;2.67;;
60030;SDS011;45901;47.600;9.890;2023-06-24T14:35:51;3.20;;;2.40;;
60030;SDS011;45901;47.600;9.890;2023-06-24T14:38:19;3.22;;;2.65;;
60030;SDS011;45901;47.600;9.890;2023-06-24T14:40:46;3.53;;;2.90;;
60030;SDS011;45901;47.600;9.890;2023-06-24T14:43:13;4.70;;;3.17;;
60030;SDS011;45901;47.600;9.890;2023-06-24T14:45:42;3.30;;;2.38;;
60030;SDS011;45901;47.600;9.890;2023-06-24T14:48:09;4.22;;;2.80;;
60030;SDS011;45901;47.600;9.890;2023-06-24T14:50:36;3.45;;;2.50;;
60030;SDS011;45901;47.600;9.890;2023-06-24T14:53:03;3.28;;;2.50;;
60030;SDS011;45901;47.600;9.890;2023-06-24T14:55:30;3.63;;;2.55;;
60030;SDS011;45901;47.600;9.890;2023-06-24T14:57:58;4.32;;;2.67;;